Time;durP1;ratioP1;P1;durP2;ratioP2;P2;SDS_P1;SDS_P2;PMS_P1;PMS_P2;Temp;Humidity;BMP_temperature;BMP_pressure;BME280_temperature;BME280_humidity;BME280_pressure;Samples;Min_cycle;Max_cycle;Signal;HPM_P1;HPM_P2
2023/10/17 00:00:42;;;;;;;7.25;4.00;;;7.80;99.90;;;;;;5052616;28;20455;-67
2023/10/17 00:03:11;;;;;;;9.53;4.37;;;7.70;99.90;;;;;;5052308;28;20045;-67
2023/10/17 00:05:37;;;;;;;11.88;6.90;;;7.80;99.90;;;;;;5052215;28;20044;-67
2023/10/17 00:08:05;;;;;;;15.15;7.28;;;7.70;99.90;;;;;;5052535;28;20075;-67
2023/10/17 00:10:41;;;;;;;7.95;4.93;;;7.70;99.90;;;;;;5052517;28;20044;-67
2023/10/17 00:13:38;;;;;;;8.68;4.80;;;7.70;99.90;;;;;;5052179;28;20079;-67
2023/10/17 00:16:11;;;;;;;8.20;4.72;;;7.70;99.90;;;;;;5052204;28;20416;-67
2023/10/17 00:18:38;;;;;;;7.65;4.00;;;7.70;99.90;;;;;;5052027;28;20037;-68
2023/10/17 00:21:22;;;;;;;10.52;5.65;;;7.70;99.90;;;;;;5035917;28;20389;-67
2023/10/17 00:23:50;;;;;;;9.07;5.07;;;7.70;99.90;;;;;;5037937;28;20041;-67
2023/10/17 00:26:18;;;;;;;7.78;4.50;;;7.70;99.90;;;;;;5051962;28;20048;-68
2023/10/17 00:28:49;;;;;;;9.90;5.43;;;7.70;99.90;;;;;;5051861;28;20041;-67
2023/10/17 00:31:14;;;;;;;12.95;6.28;;;7.70;99.90;;;;;;5052199;28;20052;-67
2023/10/17 00:33:41;;;;;;;7.82;4.40;;;7.70;99.90;;;;;;5051851;28;20075;-67
2023/10/17 00:36:14;;;;;;;8.25;4.35;;;7.70;99.90;;;;;;5051789;28;20041;-67
2023/10/17 00:38:43;;;;;;;7.38;3.92;;;7.70;99.90;;;;;;5051788;28;20094;-67
2023/10/17 00:41:10;;;;;;;10.25;5.18;;;7.70;99.90;;;;;;5068714;28;20041;-67
2023/10/17 00:43:37;;;;;;;6.20;4.10;;;7.70;99.90;;;;;;5035086;28;20049;-67
2023/10/17 00:46:07;;;;;;;7.88;4.45;;;7.70;99.90;;;;;;5051614;28;20501;-68
2023/10/17 00:48:34;;;;;;;8.20;4.18;;;7.60;99.90;;;;;;5051986;28;20481;-68
2023/10/17 00:51:09;;;;;;;8.80;4.50;;;7.60;99.90;;;;;;5051660;28;20041;-67
2023/10/17 00:53:41;;;;;;;7.93;4.38;;;7.60;99.90;;;;;;5051869;28;20051;-67
2023/10/17 00:56:07;;;;;;;;;;;7.60;99.90;;;;;;5052104;28;20041;-67
2023/10/17 00:58:34;;;;;;;8.85;4.70;;;7.60;99.90;;;;;;5052697;28;19920;-68
2023/10/17 01:03:44;;;;;;;9.85;4.57;;;7.60;99.90;;;;;;5055815;28;20059;-68
2023/10/17 01:06:28;;;;;;;8.18;4.32;;;7.60;99.90;;;;;;5055963;28;20045;-67
2023/10/17 01:08:57;;;;;;;7.55;4.00;;;7.60;99.90;;;;;;5055851;28;20045;-67
2023/10/17 01:11:29;;;;;;;7.68;3.90;;;7.50;99.90;;;;;;5055996;28;20057;-67
2023/10/17 01:13:57;;;;;;;8.07;4.07;;;7.50;99.90;;;;;;5040002;28;20044;-67
2023/10/17 01:16:24;;;;;;;10.38;4.50;;;7.50;99.90;;;;;;5039306;28;20052;-68
2023/10/17 01:18:50;;;;;;;7.80;4.18;;;7.50;99.90;;;;;;5055713;28;20052;-68
2023/10/17 01:21:18;;;;;;;7.88;4.07;;;7.50;99.90;;;;;;5055349;28;20040;-68
2023/10/17 01:23:45;;;;;;;9.85;5.20;;;7.50;99.90;;;;;;5055253;28;20080;-68
2023/10/17 01:26:20;;;;;;;9.10;4.40;;;7.50;99.90;;;;;;5055296;28;20042;-68
2023/10/17 01:28:53;;;;;;;8.70;4.70;;;7.40;99.90;;;;;;5071958;28;20041;-68
2023/10/17 01:31:25;;;;;;;7.57;4.13;;;7.40;99.90;;;;;;5055173;28;20091;-68
2023/10/17 01:33:52;;;;;;;;;;;7.40;99.90;;;;;;5055834;28;20374;-68
2023/10/17 01:36:19;;;;;;;9.77;4.38;;;7.40;99.90;;;;;;5055353;28;20349;-68
2023/10/17 01:38:46;;;;;;;10.85;4.40;;;7.40;99.90;;;;;;5055093;28;20049;-68
2023/10/17 01:41:12;;;;;;;9.93;4.30;;;7.40;99.90;;;;;;5038370;28;20040;-68
2023/10/17 01:43:45;;;;;;;8.73;4.40;;;7.40;99.90;;;;;;5038547;28;20083;-68
2023/10/17 01:46:15;;;;;;;8.65;4.78;;;7.40;99.90;;;;;;5038216;28;20056;-68
2023/10/17 01:48:46;;;;;;;11.65;5.53;;;7.50;99.90;;;;;;5054841;28;20044;-68
2023/10/17 01:51:15;;;;;;;9.27;4.55;;;7.40;99.90;;;;;;5054834;28;20041;-68
2023/10/17 01:53:41;;;;;;;8.20;4.93;;;7.40;99.90;;;;;;5038615;28;20059;-68
2023/10/17 01:56:15;;;;;;;9.65;4.80;;;7.40;99.90;;;;;;5038426;28;20094;-68
2023/10/17 01:58:48;;;;;;;6.95;4.57;;;7.40;99.90;;;;;;5038286;28;20433;-69
2023/10/17 02:01:17;;;;;;;8.68;4.80;;;7.40;99.90;;;;;;5054868;28;20048;-68
2023/10/17 02:03:43;;;;;;;8.82;5.13;;;7.40;99.90;;;;;;5037851;28;20041;-68
2023/10/17 02:06:16;;;;;;;10.88;6.90;;;7.40;99.90;;;;;;5038065;28;20080;-68
2023/10/17 02:08:43;;;;;;;9.75;5.57;;;7.40;99.90;;;;;;5054758;28;20041;-68
2023/10/17 02:11:13;;;;;;;10.65;5.45;;;7.30;99.90;;;;;;5054391;28;20048;-68
2023/10/17 02:13:41;;;;;;;10.60;5.78;;;7.30;99.90;;;;;;5054376;28;20076;-68
2023/10/17 02:16:10;;;;;;;10.10;5.40;;;7.30;99.90;;;;;;5037722;28;20106;-68
2023/10/17 02:18:36;;;;;;;10.15;5.07;;;7.30;99.90;;;;;;5071196;28;20044;-69
2023/10/17 02:21:04;;;;;;;9.48;5.43;;;7.30;99.90;;;;;;5054344;28;20436;-69
2023/10/17 02:23:40;;;;;;;9.05;5.05;;;7.30;99.90;;;;;;5037594;28;20037;-68
2023/10/17 02:26:11;;;;;;;8.70;5.22;;;7.30;99.90;;;;;;5054513;28;20120;-68
2023/10/17 02:28:46;;;;;;;8.82;5.32;;;7.30;99.90;;;;;;5054108;28;20103;-68
2023/10/17 02:31:13;;;;;;;8.15;4.80;;;7.30;99.90;;;;;;5054262;28;20095;-68
2023/10/17 02:33:42;;;;;;;8.95;5.60;;;7.30;99.90;;;;;;5054052;28;20107;-68
2023/10/17 02:36:16;;;;;;;8.05;4.63;;;7.30;99.90;;;;;;5054307;28;20090;-68
2023/10/17 02:38:43;;;;;;;7.45;4.60;;;7.30;99.90;;;;;;5054018;28;20037;-68
2023/10/17 02:41:19;;;;;;;7.20;4.40;;;7.30;99.90;;;;;;5053815;28;20041;-68
2023/10/17 02:43:55;;;;;;;7.95;4.35;;;7.30;99.90;;;;;;5054221;28;20440;-68
2023/10/17 02:46:26;;;;;;;11.75;6.68;;;7.30;99.90;;;;;;5038075;28;20065;-68
2023/10/17 02:48:53;;;;;;;11.55;6.55;;;7.30;99.90;;;;;;5053737;28;20124;-68
2023/10/17 02:53:52;;;;;;;8.80;5.25;;;7.20;99.90;;;;;;5053624;28;20132;-69
2023/10/17 02:56:18;;;;;;;8.93;5.35;;;7.20;99.90;;;;;;5053539;28;20044;-68
2023/10/17 02:58:59;;;;;;;10.55;5.60;;;7.20;99.90;;;;;;5037109;28;20064;-68
2023/10/17 03:01:26;;;;;;;8.07;5.28;;;7.20;99.90;;;;;;5055046;28;20049;-68
2023/10/17 03:03:52;;;;;;;9.35;5.60;;;7.20;99.90;;;;;;5053363;28;20099;-68
2023/10/17 03:06:18;;;;;;;9.00;5.30;;;7.20;99.90;;;;;;5053669;28;20073;-68
2023/10/17 03:09:00;;;;;;;11.15;5.78;;;7.20;99.90;;;;;;5036720;28;20083;-69
2023/10/17 03:11:35;;;;;;;11.05;5.70;;;7.20;99.90;;;;;;5053343;28;20119;-68
2023/10/17 03:14:12;;;;;;;10.40;5.35;;;7.20;99.90;;;;;;5053548;28;20095;-68
2023/10/17 03:16:42;;;;;;;10.50;5.40;;;7.20;99.90;;;;;;5053496;28;20076;-68
2023/10/17 03:19:11;;;;;;;10.40;5.18;;;7.20;99.90;;;;;;5053156;28;20037;-68
2023/10/17 03:21:39;;;;;;;9.55;4.50;;;7.20;99.90;;;;;;5052565;28;20098;-69
2023/10/17 03:24:05;;;;;;;10.70;4.80;;;7.20;99.90;;;;;;5053205;28;20091;-68
2023/10/17 03:26:39;;;;;;;8.52;4.68;;;7.20;99.90;;;;;;5053016;28;20037;-68
2023/10/17 03:29:23;;;;;;;7.55;4.15;;;7.20;99.90;;;;;;5053163;28;20071;-68
2023/10/17 03:31:53;;;;;;;8.25;4.00;;;7.20;99.90;;;;;;5053308;28;20041;-68
2023/10/17 03:34:34;;;;;;;7.60;4.32;;;7.20;99.90;;;;;;5053037;28;20043;-68
2023/10/17 03:37:26;;;;;;;12.10;6.82;;;7.20;99.90;;;;;;5036945;28;20044;-68
2023/10/17 03:39:53;;;;;;;9.57;4.47;;;7.10;99.90;;;;;;5052972;28;20090;-68
2023/10/17 03:42:31;;;;;;;8.50;4.45;;;7.00;99.90;;;;;;5036915;28;20048;-69
2023/10/17 03:44:58;;;;;;;12.38;6.78;;;7.00;99.90;;;;;;5037584;28;20130;-69
2023/10/17 03:47:24;;;;;;;8.88;4.53;;;7.00;99.90;;;;;;5036066;28;20048;-68
2023/10/17 03:49:55;;;;;;;8.32;4.95;;;6.90;99.90;;;;;;5052832;28;20124;-68
2023/10/17 03:52:22;;;;;;;11.13;7.13;;;6.90;99.90;;;;;;5052506;28;20041;-68
2023/10/17 03:54:48;;;;;;;9.52;5.25;;;6.80;99.90;;;;;;5053810;28;20045;-68
2023/10/17 03:57:16;;;;;;;12.18;7.00;;;6.80;99.90;;;;;;5052578;28;20047;-68
2023/10/17 03:59:50;;;;;;;12.48;6.82;;;6.80;99.90;;;;;;5052346;28;20041;-68
2023/10/17 04:02:21;;;;;;;9.35;5.03;;;6.70;99.90;;;;;;5052337;28;20052;-68
2023/10/17 04:04:53;;;;;;;9.75;5.53;;;6.70;99.90;;;;;;5036688;28;20401;-68
2023/10/17 04:07:24;;;;;;;9.60;5.30;;;6.70;99.90;;;;;;5035587;28;20037;-68
2023/10/17 04:09:54;;;;;;;9.43;4.80;;;6.60;99.90;;;;;;5052224;28;20091;-68
2023/10/17 04:12:22;;;;;;;8.43;4.65;;;6.70;99.90;;;;;;5053417;28;20047;-68
2023/10/17 04:14:58;;;;;;;8.68;4.70;;;6.60;99.90;;;;;;5035553;28;20076;-68
2023/10/17 04:17:29;;;;;;;10.93;5.95;;;6.60;99.90;;;;;;5052459;28;20504;-68
2023/10/17 04:19:58;;;;;;;8.98;5.25;;;6.60;99.90;;;;;;5052059;28;20048;-69
2023/10/17 04:22:29;;;;;;;10.68;5.63;;;6.60;99.90;;;;;;5052045;28;20135;-68
2023/10/17 04:25:00;;;;;;;9.43;5.50;;;6.60;99.90;;;;;;5052230;28;20128;-68
2023/10/17 04:27:31;;;;;;;10.80;6.40;;;6.60;99.90;;;;;;5052054;28;20076;-68
2023/10/17 04:29:58;;;;;;;10.68;5.80;;;6.60;99.90;;;;;;5052070;28;20045;-68
2023/10/17 04:32:28;;;;;;;7.93;4.32;;;6.60;99.90;;;;;;5019137;28;20041;-68
2023/10/17 04:34:55;;;;;;;8.77;4.20;;;6.60;99.90;;;;;;5051812;28;20053;-68
2023/10/17 04:37:24;;;;;;;7.20;3.95;;;6.60;99.90;;;;;;5051812;28;20044;-68
2023/10/17 04:39:57;;;;;;;8.63;4.32;;;6.60;99.90;;;;;;5051910;28;20128;-68
2023/10/17 04:42:47;;;;;;;8.88;4.85;;;6.60;99.90;;;;;;5052028;28;20055;-68
2023/10/17 04:45:19;;;;;;;10.38;5.65;;;6.60;99.90;;;;;;5051420;28;20076;-68
2023/10/17 04:47:46;;;;;;;11.15;5.60;;;6.60;99.90;;;;;;5036300;28;20064;-67
2023/10/17 04:50:12;;;;;;;10.93;5.93;;;6.60;99.90;;;;;;5035286;28;20371;-67
2023/10/17 04:52:41;;;;;;;10.20;5.80;;;6.50;99.90;;;;;;5051905;28;20059;-67
2023/10/17 04:55:18;;;;;;;8.95;6.45;;;6.50;99.90;;;;;;5051860;28;20045;-67
2023/10/17 05:00:37;;;;;;;8.63;4.82;;;6.50;99.90;;;;;;5051881;28;20041;-68
2023/10/17 05:03:13;;;;;;;9.20;4.82;;;6.50;99.90;;;;;;5051781;28;20050;-68
2023/10/17 05:06:11;;;;;;;8.75;5.35;;;6.50;99.90;;;;;;5051401;28;20052;-68
2023/10/17 06:17:07;;;;;;;10.35;5.00;;;6.50;99.90;;;;;;5054575;28;20052;-69
2023/10/17 06:19:33;;;;;;;9.18;4.45;;;6.50;99.90;;;;;;5054329;28;20045;-67
2023/10/17 06:34:16;;;;;;;15.05;6.93;;;6.50;99.90;;;;;;5054113;28;20045;-70
2023/10/17 06:36:43;;;;;;;12.90;6.97;;;6.50;99.90;;;;;;5054359;28;20507;-68
2023/10/17 06:39:24;;;;;;;15.75;8.20;;;6.60;99.90;;;;;;5053917;28;20072;-68
2023/10/17 06:41:52;;;;;;;11.32;6.82;;;6.60;99.90;;;;;;5037273;28;20043;-68
2023/10/17 06:44:26;;;;;;;10.82;6.22;;;6.60;99.90;;;;;;5053826;28;20045;-68
2023/10/17 06:46:56;;;;;;;10.85;6.90;;;6.60;99.90;;;;;;5053922;28;20073;-68
2023/10/17 06:54:42;;;;;;;;;;;6.60;99.90;;;;;;5054367;28;20397;-68
2023/10/17 06:57:33;;;;;;;16.50;10.00;;;6.70;99.90;;;;;;5035880;28;19916;-68
2023/10/17 07:00:24;;;;;;;15.55;10.05;;;6.70;99.90;;;;;;5053549;28;20084;-68
2023/10/17 07:02:50;;;;;;;17.40;12.70;;;6.70;99.90;;;;;;5040747;28;20512;-68
2023/10/17 07:05:22;;;;;;;16.30;10.85;;;6.80;99.90;;;;;;5053439;28;20094;-68
2023/10/17 07:07:52;;;;;;;14.85;10.38;;;6.90;99.90;;;;;;5053422;28;20049;-68
2023/10/17 07:13:36;;;;;;;14.95;10.13;;;7.00;99.90;;;;;;5053516;28;20045;-68
2023/10/17 07:16:11;;;;;;;15.68;10.70;;;7.00;99.90;;;;;;5053289;28;20048;-69
2023/10/17 07:18:44;;;;;;;17.23;10.82;;;7.10;99.90;;;;;;5036881;28;20126;-68
2023/10/17 07:23:48;;;;;;;14.07;9.27;;;7.10;99.90;;;;;;5053327;28;20084;-69
2023/10/17 07:26:17;;;;;;;17.63;11.70;;;7.10;99.90;;;;;;5053065;28;20055;-68
2023/10/17 07:28:50;;;;;;;14.32;10.80;;;7.10;99.90;;;;;;5053344;28;20485;-69
2023/10/17 07:31:20;;;;;;;;;;;7.20;99.90;;;;;;5053402;28;20099;-69
2023/10/17 07:33:47;;;;;;;20.48;12.77;;;7.20;99.90;;;;;;5036434;28;19956;-68
2023/10/17 07:36:15;;;;;;;17.90;13.73;;;7.30;99.90;;;;;;5053081;28;20528;-68
2023/10/17 07:38:45;;;;;;;16.85;12.20;;;7.40;99.90;;;;;;5053059;28;20553;-69
2023/10/17 07:41:14;;;;;;;17.23;11.52;;;7.40;99.90;;;;;;5069529;28;20036;-69
2023/10/17 07:43:47;;;;;;;15.70;10.90;;;7.40;99.90;;;;;;5052927;28;20037;-68
2023/10/17 07:46:18;;;;;;;14.88;10.13;;;7.50;99.90;;;;;;5052628;28;20521;-68
2023/10/17 07:48:50;;;;;;;11.77;8.77;;;7.60;99.90;;;;;;5052818;28;20523;-68
2023/10/17 07:51:16;;;;;;;13.90;8.98;;;7.60;99.90;;;;;;5036046;28;20287;-68
2023/10/17 07:53:45;;;;;;;11.77;8.40;;;7.60;99.90;;;;;;5052537;28;20044;-68
2023/10/17 07:56:21;;;;;;;13.15;9.30;;;7.70;99.90;;;;;;5052470;28;20072;-68
2023/10/17 07:58:56;;;;;;;12.13;8.30;;;7.70;99.90;;;;;;5052487;28;20098;-68
2023/10/17 08:01:32;;;;;;;11.40;8.20;;;7.70;99.90;;;;;;5035828;28;20040;-68
2023/10/17 08:06:58;;;;;;;12.18;7.53;;;7.90;99.90;;;;;;5029841;28;20094;-68
2023/10/17 08:09:24;;;;;;;9.55;6.18;;;8.00;99.90;;;;;;5035973;28;20041;-69
2023/10/17 08:11:54;;;;;;;11.23;6.18;;;8.10;99.90;;;;;;5052488;28;20033;-68
2023/10/17 08:17:08;;;;;;;12.23;6.43;;;8.20;99.90;;;;;;5052188;28;20091;-68
2023/10/17 08:22:19;;;;;;;10.90;5.80;;;8.30;99.90;;;;;;5052453;28;20037;-68
2023/10/17 08:24:51;;;;;;;8.32;5.30;;;8.30;99.90;;;;;;5051921;28;20132;-69
2023/10/17 08:29:48;;;;;;;11.80;5.40;;;8.50;99.90;;;;;;5051986;28;19916;-68
2023/10/17 08:32:38;;;;;;;8.40;4.68;;;8.60;99.90;;;;;;5052079;28;20044;-68
2023/10/17 08:35:38;;;;;;;9.63;5.18;;;8.60;99.90;;;;;;5052154;28;20045;-68
2023/10/17 08:37:59;;;;;;;9.95;4.88;;;8.70;99.90;;;;;;5049036;28;20053;-68
2023/10/17 08:40:29;;;;;;;9.98;4.50;;;8.90;99.90;;;;;;5051851;28;20128;-68
2023/10/17 08:43:17;;;;;;;9.45;4.47;;;9.00;99.90;;;;;;5051988;28;20041;-69
2023/10/17 08:45:46;;;;;;;10.63;4.25;;;9.30;99.90;;;;;;5051506;28;20134;-69
2023/10/17 08:48:12;;;;;;;8.45;4.22;;;9.40;99.90;;;;;;5052121;28;20052;-69
2023/10/17 08:50:39;;;;;;;7.03;3.72;;;9.60;99.90;;;;;;5035074;28;20063;-68
2023/10/17 08:53:12;;;;;;;9.52;4.00;;;9.60;99.90;;;;;;5051591;28;20125;-68
2023/10/17 08:55:40;;;;;;;6.63;3.70;;;9.60;99.90;;;;;;5051897;28;20084;-68
2023/10/17 08:58:08;;;;;;;7.82;3.70;;;9.70;99.90;;;;;;5051691;28;20041;-68
2023/10/17 09:03:41;;;;;;;7.32;3.28;;;10.00;99.90;;;;;;5052004;28;20052;-68
2023/10/17 09:08:45;;;;;;;7.90;3.28;;;10.30;99.90;;;;;;5051609;28;20094;-68
2023/10/17 09:11:14;;;;;;;8.50;3.20;;;10.30;99.90;;;;;;5051497;28;20060;-68
2023/10/17 09:16:15;;;;;;;6.72;2.70;;;10.50;99.90;;;;;;5051832;28;20063;-69
2023/10/17 09:18:48;;;;;;;5.28;2.25;;;10.60;99.90;;;;;;5034896;28;20045;-68
2023/10/17 09:21:16;;;;;;;7.25;2.50;;;10.80;99.90;;;;;;5055229;28;20057;-68
2023/10/17 09:23:42;;;;;;;7.63;2.72;;;10.90;99.90;;;;;;5055665;28;20463;-68
2023/10/17 09:26:12;;;;;;;6.10;2.13;;;10.80;99.90;;;;;;5055446;28;20037;-68
2023/10/17 09:28:39;;;;;;;6.75;2.05;;;10.90;99.90;;;;;;5055214;28;20109;-67
2023/10/17 09:31:10;;;;;;;6.07;2.45;;;11.10;99.90;;;;;;5038725;28;20047;-67
2023/10/17 09:33:48;;;;;;;9.02;2.70;;;11.30;99.90;;;;;;5055400;28;20087;-67
2023/10/17 09:36:19;;;;;;;5.68;1.92;;;11.50;99.90;;;;;;5055363;28;20045;-68
2023/10/17 09:38:46;;;;;;;4.85;1.50;;;11.60;99.90;;;;;;5055025;28;20052;-67
2023/10/17 09:41:19;;;;;;;6.45;1.60;;;11.70;99.90;;;;;;5055359;28;20049;-67
2023/10/17 09:43:46;;;;;;;5.90;1.80;;;11.60;99.90;;;;;;5055244;28;20511;-68
2023/10/17 09:46:13;;;;;;;6.75;1.58;;;11.70;99.90;;;;;;5054691;28;20053;-68
2023/10/17 09:48:43;;;;;;;5.20;1.60;;;11.80;99.90;;;;;;5038682;28;20056;-67
2023/10/17 09:51:12;;;;;;;6.50;1.77;;;11.90;99.90;;;;;;5055183;28;20051;-67
2023/10/17 09:53:39;;;;;;;7.05;1.55;;;11.90;99.90;;;;;;5054839;28;20037;-68
2023/10/17 09:56:16;;;;;;;4.65;1.40;;;12.10;99.90;;;;;;5055062;28;20465;-68
2023/10/17 09:58:48;;;;;;;5.38;1.52;;;12.10;99.90;;;;;;5054932;28;20148;-67
2023/10/17 10:01:20;;;;;;;4.00;1.40;;;12.00;99.90;;;;;;5054946;28;20067;-68
2023/10/17 10:03:48;;;;;;;7.15;1.58;;;11.70;99.90;;;;;;5054638;28;20048;-67
2023/10/17 10:06:23;;;;;;;4.97;1.40;;;11.90;99.90;;;;;;5071360;28;20062;-68
2023/10/17 10:08:56;;;;;;;5.47;1.30;;;12.00;99.90;;;;;;5054741;28;20370;-68
2023/10/17 10:11:47;;;;;;;5.53;1.20;;;12.20;99.90;;;;;;5054877;28;20404;-68
2023/10/17 10:14:13;;;;;;;4.15;1.30;;;12.30;99.90;;;;;;5054857;28;20040;-68
2023/10/17 10:16:50;;;;;;;5.07;1.23;;;12.40;99.90;;;;;;5037867;28;20124;-68
2023/10/17 10:19:16;;;;;;;5.15;1.27;;;12.40;99.90;;;;;;5037891;28;20052;-68
2023/10/17 10:21:58;;;;;;;4.55;1.15;;;12.40;99.90;;;;;;5054247;28;20051;-68
2023/10/17 10:24:34;;;;;;;5.22;1.30;;;12.50;99.90;;;;;;5054263;28;20049;-68
2023/10/17 10:27:25;;;;;;;3.67;1.10;;;12.40;99.90;;;;;;5054271;28;20063;-68
2023/10/17 10:29:54;;;;;;;5.07;1.30;;;12.50;99.90;;;;;;5054080;28;20124;-68
2023/10/17 10:32:25;;;;;;;6.28;1.50;;;12.60;99.90;;;;;;5071168;28;20041;-68
2023/10/17 10:34:52;;;;;;;4.03;1.20;;;12.40;99.90;;;;;;5054373;28;20041;-68
2023/10/17 10:37:20;;;;;;;4.03;1.15;;;12.50;99.90;;;;;;5054263;28;20066;-68
2023/10/17 10:40:11;;;;;;;4.65;1.20;;;12.60;99.90;;;;;;5054093;28;20559;-68
2023/10/17 10:42:47;;;;;;;4.70;1.02;;;12.60;99.90;;;;;;5054238;28;20485;-69
2023/10/17 10:45:26;;;;;;;4.75;1.15;;;12.70;99.90;;;;;;5037302;28;20107;-68
2023/10/17 10:47:58;;;;;;;5.20;1.30;;;12.70;99.90;;;;;;5053832;28;20068;-68
2023/10/17 10:50:29;;;;;;;6.03;1.30;;;12.70;99.90;;;;;;5037156;28;20221;-68
2023/10/17 10:52:56;;;;;;;6.65;1.20;;;12.70;99.90;;;;;;5053774;28;20122;-68
2023/10/17 10:55:25;;;;;;;6.22;1.27;;;12.70;99.90;;;;;;5055025;28;20044;-68
2023/10/17 10:57:51;;;;;;;4.28;1.00;;;12.70;99.90;;;;;;5037338;28;20045;-68
2023/10/17 11:00:18;;;;;;;5.68;1.20;;;12.80;99.30;;;;;;5037086;28;20045;-68
2023/10/17 11:02:43;;;;;;;5.18;1.17;;;12.50;99.20;;;;;;5053869;28;20044;-68
2023/10/17 11:05:13;;;;;;;5.95;1.17;;;12.50;98.60;;;;;;5036900;28;20095;-68
2023/10/17 11:07:39;;;;;;;6.18;1.40;;;12.60;99.90;;;;;;5053437;28;20049;-68
2023/10/17 11:10:07;;;;;;;4.65;1.13;;;12.60;99.90;;;;;;5053484;28;20049;-69
2023/10/17 11:12:33;;;;;;;5.40;1.20;;;12.70;99.90;;;;;;5053612;28;20501;-68
2023/10/17 11:15:22;;;;;;;3.28;1.20;;;12.60;99.40;;;;;;5053488;28;20067;-68
2023/10/17 11:17:47;;;;;;;5.82;1.30;;;12.60;99.90;;;;;;5053387;28;20083;-68
2023/10/17 11:20:17;;;;;;;5.88;1.20;;;12.70;99.90;;;;;;5053224;28;20044;-68
2023/10/17 11:22:46;;;;;;;5.20;1.30;;;12.60;99.90;;;;;;5053184;28;20076;-68
2023/10/17 11:25:21;;;;;;;6.30;1.30;;;12.60;99.90;;;;;;5053057;28;20056;-68
2023/10/17 11:27:53;;;;;;;4.80;1.30;;;12.50;99.90;;;;;;5053390;28;20397;-68
2023/10/17 11:30:20;;;;;;;5.13;1.23;;;12.60;99.90;;;;;;5053021;28;20045;-68
2023/10/17 11:32:49;;;;;;;6.22;1.25;;;12.70;99.70;;;;;;5036293;28;20045;-68
2023/10/17 11:35:29;;;;;;;5.30;1.30;;;12.80;99.90;;;;;;5036351;28;20045;-68
2023/10/17 11:37:58;;;;;;;5.15;1.38;;;12.80;99.90;;;;;;5052861;28;20060;-69
2023/10/17 11:40:46;;;;;;;4.50;1.35;;;12.80;99.70;;;;;;5036405;28;20041;-68
2023/10/17 11:43:19;;;;;;;5.45;1.50;;;12.70;99.90;;;;;;5052429;28;20041;-68
2023/10/17 11:45:45;;;;;;;5.82;1.50;;;12.60;99.80;;;;;;5052846;28;20056;-69
2023/10/17 11:48:32;;;;;;;4.75;1.50;;;12.60;99.90;;;;;;5036341;28;20095;-68
2023/10/17 11:51:18;;;;;;;4.53;1.27;;;12.60;99.90;;;;;;5052717;28;20063;-68
2023/10/17 11:54:07;;;;;;;5.45;1.50;;;12.70;99.90;;;;;;5052570;28;20044;-68
2023/10/17 11:56:40;;;;;;;7.13;1.63;;;12.70;99.90;;;;;;5053813;28;20044;-69
2023/10/17 11:59:17;;;;;;;6.13;1.65;;;12.60;99.90;;;;;;5052617;28;20041;-69
2023/10/17 12:01:45;;;;;;;5.30;1.50;;;12.50;99.90;;;;;;5052485;28;20083;-70
2023/10/17 12:04:16;;;;;;;5.57;1.60;;;12.60;99.90;;;;;;5052626;28;20041;-69
2023/10/17 12:06:44;;;;;;;5.45;1.60;;;12.60;99.90;;;;;;5052718;28;20059;-69
2023/10/17 12:11:49;;;;;;;5.40;1.60;;;12.50;99.90;;;;;;5053459;28;20041;-69
2023/10/17 12:14:21;;;;;;;5.40;1.50;;;12.40;99.90;;;;;;5052292;28;20045;-69
2023/10/17 12:16:54;;;;;;;4.72;1.50;;;12.40;99.90;;;;;;5052505;28;20427;-69
2023/10/17 12:19:26;;;;;;;4.85;1.40;;;12.50;99.90;;;;;;5035716;28;20044;-69
2023/10/17 12:21:53;;;;;;;3.83;1.25;;;12.50;99.90;;;;;;5052063;28;20111;-70
2023/10/17 12:24:29;;;;;;;4.03;1.27;;;12.60;99.90;;;;;;5051945;28;20052;-70
2023/10/17 12:26:58;;;;;;;7.13;1.65;;;12.70;99.90;;;;;;5036390;28;20036;-69
2023/10/17 12:29:25;;;;;;;5.03;1.38;;;12.70;99.90;;;;;;5018964;28;20190;-69
2023/10/17 12:31:57;;;;;;;4.40;1.40;;;12.50;99.90;;;;;;5051930;28;20122;-70
2023/10/17 12:34:23;;;;;;;6.05;1.40;;;12.50;99.90;;;;;;5035484;28;20048;-70
2023/10/17 12:36:49;;;;;;;5.30;1.38;;;12.50;99.90;;;;;;5051934;28;20041;-70
2023/10/17 12:39:18;;;;;;;5.05;1.40;;;12.50;99.90;;;;;;5051894;28;20048;-69
2023/10/17 12:41:46;;;;;;;6.05;1.40;;;12.50;99.90;;;;;;5035187;28;20044;-70
2023/10/17 12:44:12;;;;;;;6.47;1.38;;;12.50;99.90;;;;;;5051893;28;20040;-70
2023/10/17 12:46:41;;;;;;;5.20;1.30;;;12.50;99.90;;;;;;5068282;28;20076;-71
2023/10/17 12:49:09;;;;;;;5.07;1.40;;;12.40;99.90;;;;;;5052042;28;20397;-70
2023/10/17 12:51:41;;;;;;;5.28;1.27;;;12.40;99.90;;;;;;5051913;28;20041;-71
2023/10/17 12:54:07;;;;;;;4.30;1.40;;;12.40;99.50;;;;;;5050761;28;20045;-70
2023/10/17 12:56:36;;;;;;;6.05;1.50;;;12.30;98.50;;;;;;5051675;28;20063;-70
2023/10/17 12:59:03;;;;;;;5.05;1.20;;;12.20;99.60;;;;;;5035177;28;20040;-69
2023/10/17 13:01:29;;;;;;;4.30;1.40;;;12.30;99.90;;;;;;5035452;28;20048;-68
2023/10/17 13:03:57;;;;;;;7.03;1.60;;;12.30;99.90;;;;;;5051586;28;20037;-69
2023/10/17 13:06:27;;;;;;;6.18;1.50;;;12.30;99.90;;;;;;5018875;28;20041;-69
2023/10/17 13:08:56;;;;;;;6.40;1.60;;;12.20;99.90;;;;;;5051800;28;20041;-68
2023/10/17 13:11:24;;;;;;;5.65;1.60;;;12.10;99.10;;;;;;5051894;28;20393;-68
2023/10/17 13:13:49;;;;;;;3.83;1.40;;;12.20;99.90;;;;;;5035035;28;20041;-68
2023/10/17 13:16:15;;;;;;;3.92;1.38;;;12.30;99.90;;;;;;5051793;28;20405;-69
2023/10/17 13:18:41;;;;;;;5.53;1.52;;;12.30;99.60;;;;;;5034876;28;20138;-68
2023/10/17 13:21:12;;;;;;;6.15;1.60;;;12.30;99.90;;;;;;5051696;28;20377;-68
2023/10/17 13:23:39;;;;;;;5.50;1.50;;;12.20;99.90;;;;;;5051319;28;20051;-68
2023/10/17 13:26:12;;;;;;;4.50;1.70;;;12.20;99.90;;;;;;5051458;28;20056;-68
2023/10/17 13:28:40;;;;;;;5.78;1.90;;;12.20;99.80;;;;;;5051349;28;20037;-68
2023/10/17 13:31:14;;;;;;;6.00;1.50;;;12.20;99.90;;;;;;5051405;28;20041;-68
2023/10/17 13:33:42;;;;;;;6.88;1.70;;;12.10;99.90;;;;;;5051282;28;20037;-68
2023/10/17 13:36:11;;;;;;;6.50;1.70;;;12.20;99.90;;;;;;5051336;28;20048;-69
2023/10/17 13:38:40;;;;;;;6.40;1.83;;;12.30;99.90;;;;;;5034629;28;20053;-68
2023/10/17 13:41:11;;;;;;;3.95;1.42;;;12.20;99.70;;;;;;5051315;28;20048;-69
2023/10/17 13:43:40;;;;;;;7.03;1.73;;;12.10;98.90;;;;;;5051582;28;20401;-69
2023/10/17 13:46:12;;;;;;;5.90;1.75;;;12.00;99.60;;;;;;5050333;28;20052;-69
2023/10/17 13:48:38;;;;;;;6.63;1.77;;;12.00;99.80;;;;;;5050205;28;20049;-69
2023/10/17 13:51:06;;;;;;;5.75;1.77;;;12.00;99.90;;;;;;5067183;28;20504;-68
2023/10/17 13:53:36;;;;;;;4.68;1.70;;;12.00;99.90;;;;;;5050205;28;20174;-69
2023/10/17 13:56:14;;;;;;;6.38;1.80;;;12.00;99.90;;;;;;5050098;28;20072;-68
2023/10/17 13:58:41;;;;;;;5.32;1.80;;;12.10;99.90;;;;;;5050060;28;20106;-67
2023/10/17 14:04:13;;;;;;;5.68;1.83;;;12.00;99.90;;;;;;4993081;28;20100;-68
2023/10/17 14:06:40;;;;;;;7.18;1.77;;;12.00;99.90;;;;;;4995571;28;20042;-68
2023/10/17 14:09:16;;;;;;;6.28;1.70;;;12.00;99.90;;;;;;5038491;28;20045;-68
2023/10/17 14:11:46;;;;;;;6.32;1.92;;;12.00;99.90;;;;;;5053620;28;20485;-68
2023/10/17 14:14:13;;;;;;;5.65;2.00;;;11.90;99.90;;;;;;5036740;28;20033;-68
2023/10/17 14:16:43;;;;;;;6.90;2.13;;;12.00;99.90;;;;;;5053408;28;20076;-68
2023/10/17 14:19:15;;;;;;;5.65;1.90;;;11.90;99.90;;;;;;5053579;28;20041;-68
2023/10/17 14:22:01;;;;;;;5.45;1.80;;;11.90;99.90;;;;;;5053173;28;20037;-68
2023/10/17 14:27:29;;;;;;;7.25;2.00;;;11.90;99.90;;;;;;5031105;28;20451;-68
2023/10/17 14:29:59;;;;;;;5.65;2.10;;;11.90;99.90;;;;;;5053062;28;20167;-68
2023/10/17 14:32:26;;;;;;;5.53;2.00;;;11.90;99.90;;;;;;5053010;28;20061;-68
2023/10/17 14:34:53;;;;;;;5.35;1.92;;;11.80;99.90;;;;;;5053089;28;20040;-68
2023/10/17 14:37:20;;;;;;;6.55;1.90;;;11.80;99.90;;;;;;5052911;28;20040;-68
2023/10/17 14:39:46;;;;;;;6.20;2.30;;;11.80;99.90;;;;;;5052924;28;20041;-68
2023/10/17 14:42:17;;;;;;;5.35;1.90;;;11.80;99.90;;;;;;5069623;28;20041;-69
2023/10/17 14:44:45;;;;;;;6.10;2.10;;;11.80;99.90;;;;;;5013716;28;1120733;-68
2023/10/17 14:47:17;;;;;;;5.82;1.95;;;11.80;99.90;;;;;;5053926;28;20053;-68
2023/10/17 14:49:47;;;;;;;5.50;2.00;;;11.70;99.90;;;;;;5054117;28;20543;-68
2023/10/17 14:52:18;;;;;;;5.50;2.10;;;11.70;99.90;;;;;;5053845;28;20041;-68
2023/10/17 14:54:43;;;;;;;6.72;2.08;;;11.70;99.90;;;;;;5053972;28;20037;-68
2023/10/17 14:57:10;;;;;;;5.63;2.03;;;11.70;99.90;;;;;;5053839;28;20033;-69
2023/10/17 14:59:38;;;;;;;6.82;2.22;;;11.70;99.90;;;;;;5054854;28;20389;-68
2023/10/17 15:02:05;;;;;;;4.90;2.00;;;11.60;99.90;;;;;;5053631;28;20124;-68
2023/10/17 15:04:31;;;;;;;5.32;1.90;;;11.50;99.90;;;;;;5053614;28;20052;-68
2023/10/17 15:06:58;;;;;;;6.47;2.10;;;11.50;99.90;;;;;;5053465;28;20063;-68
2023/10/17 15:09:27;;;;;;;6.88;2.10;;;11.40;99.90;;;;;;5053774;28;20383;-68
2023/10/17 15:11:53;;;;;;;6.05;2.00;;;11.40;99.90;;;;;;5036768;28;20037;-68
2023/10/17 15:14:22;;;;;;;6.25;2.10;;;11.30;99.90;;;;;;5020322;28;20037;-69
2023/10/17 15:16:47;;;;;;;6.05;2.00;;;11.30;99.90;;;;;;5036378;28;20052;-67